Time;durP1;ratioP1;P1;durP2;ratioP2;P2;SDS_P1;SDS_P2;PMS_P1;PMS_P2;Temp;Humidity;BMP_temperature;BMP_pressure;BME280_temperature;BME280_humidity;BME280_pressure;Samples;Min_cycle;Max_cycle;Signal;HPM_P1;HPM_P2
2022/02/15 00:02:10;;;;;;;0.60;0.60;;;;;;;8.28;69.27;95966.91;5014607;28;20393;-78
2022/02/15 00:04:37;;;;;;;0.70;0.70;;;;;;;8.29;68.80;95971.09;5014655;28;20058;-77
2022/02/15 00:07:05;;;;;;;0.68;0.68;;;;;;;8.27;69.47;95971.28;5014483;28;20419;-77
2022/02/15 00:09:32;;;;;;;0.95;0.70;;;;;;;8.27;69.47;95970.50;5014174;28;20045;-77
2022/02/15 00:12:01;;;;;;;0.52;0.52;;;;;;;8.30;69.68;95976.13;5014687;28;20057;-77
2022/02/15 00:14:28;;;;;;;0.75;0.70;;;;;;;8.31;69.25;95976.91;5014792;28;20072;-77
2022/02/15 00:16:56;;;;;;;0.85;0.80;;;;;;;8.32;69.06;95978.53;5014192;28;20061;-77
2022/02/15 00:19:24;;;;;;;1.65;0.80;;;;;;;8.31;69.14;95982.09;5014076;28;20057;-77
2022/02/15 00:21:51;;;;;;;0.40;0.40;;;;;;;8.31;69.43;95982.09;5014147;28;20046;-77
2022/02/15 00:24:18;;;;;;;0.50;0.50;;;;;;;8.32;69.87;95981.13;5014361;28;20053;-77
2022/02/15 00:26:46;;;;;;;0.85;0.77;;;;;;;8.33;69.57;95980.13;5014143;28;20397;-77
2022/02/15 00:29:15;;;;;;;1.02;0.90;;;;;;;8.27;69.62;95980.88;5013909;28;20042;-77
2022/02/15 00:31:43;;;;;;;0.80;0.73;;;;;;;8.25;70.07;95979.25;5014049;28;20053;-77
2022/02/15 00:34:10;;;;;;;1.00;0.90;;;;;;;8.28;70.02;95982.47;5014127;28;20050;-77
2022/02/15 00:36:38;;;;;;;1.52;1.00;;;;;;;8.23;69.35;95978.63;5013479;28;20054;-77
2022/02/15 00:39:05;;;;;;;0.75;0.75;;;;;;;8.14;69.39;95978.94;5014159;28;20042;-77
2022/02/15 00:41:33;;;;;;;2.30;1.17;;;;;;;8.03;69.68;95975.00;5014021;28;20056;-77
2022/02/15 00:44:00;;;;;;;2.80;1.00;;;;;;;7.99;70.21;95978.94;5013951;28;20427;-76
2022/02/15 00:46:29;;;;;;;1.52;1.10;;;;;;;7.98;70.37;95974.72;5013562;28;20057;-77
2022/02/15 00:48:57;;;;;;;1.20;1.10;;;;;;;7.97;70.41;95981.72;5013669;28;20459;-77
2022/02/15 00:51:25;;;;;;;1.23;1.00;;;;;;;8.01;71.14;95982.16;5013825;28;20528;-77
2022/02/15 00:53:52;;;;;;;1.33;1.15;;;;;;;8.06;70.54;95982.44;5013711;28;20061;-77
2022/02/15 00:56:20;;;;;;;1.35;0.90;;;;;;;8.10;70.57;95985.47;5012846;28;20052;-77
2022/02/15 00:58:47;;;;;;;1.10;1.08;;;;;;;8.13;70.97;95985.91;5013880;28;20483;-77
2022/02/15 01:01:15;;;;;;;1.45;1.17;;;;;;;8.13;70.42;95985.09;5013365;28;20050;-77
2022/02/15 01:03:44;;;;;;;2.15;1.00;;;;;;;8.12;70.14;95984.31;5013460;28;20061;-77
2022/02/15 01:06:11;;;;;;;1.73;1.15;;;;;;;8.13;70.60;95979.91;5013206;28;20061;-77
2022/02/15 01:08:42;;;;;;;1.40;1.27;;;;;;;8.14;70.62;95987.53;5013355;28;20046;-77
2022/02/15 01:11:09;;;;;;;1.55;1.00;;;;;;;8.14;70.41;95991.91;5013283;28;20415;-77
2022/02/15 01:13:37;;;;;;;1.67;1.17;;;;;;;8.12;70.32;95994.69;5013340;28;20061;-77
2022/02/15 01:16:06;;;;;;;1.98;1.88;;;;;;;8.04;70.41;95998.19;5012855;28;20395;-76
2022/02/15 01:18:33;;;;;;;1.40;1.30;;;;;;;8.01;70.75;95993.34;5013462;28;20042;-78
2022/02/15 01:21:02;;;;;;;1.80;1.50;;;;;;;8.01;70.92;95988.16;5013254;28;20049;-77
2022/02/15 01:23:29;;;;;;;2.88;1.40;;;;;;;8.01;70.23;95982.16;5013068;28;20069;-77
2022/02/15 01:25:57;;;;;;;1.27;1.17;;;;;;;7.95;70.51;95988.88;5013493;28;20054;-77
2022/02/15 01:28:24;;;;;;;1.83;1.52;;;;;;;7.88;70.64;95993.19;5013431;28;20060;-77
2022/02/15 01:30:52;;;;;;;1.63;1.42;;;;;;;7.86;71.06;95989.16;5013329;28;20049;-77
2022/02/15 01:33:20;;;;;;;2.08;1.83;;;;;;;7.83;70.61;95985.94;5012934;28;20500;-77
2022/02/15 01:35:47;;;;;;;1.77;1.65;;;;;;;7.83;70.76;95985.94;5012832;28;20554;-77
2022/02/15 01:38:16;;;;;;;2.72;2.30;;;;;;;7.80;70.32;95982.88;5012338;28;20065;-77
2022/02/15 01:40:43;;;;;;;3.40;2.30;;;;;;;7.73;70.81;95982.78;5012602;28;20046;-77
2022/02/15 01:43:11;;;;;;;2.50;1.85;;;;;;;7.74;70.63;95983.59;5017863;28;20053;-76
2022/02/15 01:45:38;;;;;;;2.47;2.10;;;;;;;7.76;71.01;95985.06;5017627;28;20586;-77
2022/02/15 01:48:08;;;;;;;2.13;1.90;;;;;;;7.77;71.00;95986.66;5017199;28;20057;-77
2022/02/15 01:50:36;;;;;;;1.67;1.58;;;;;;;7.77;70.64;95980.66;5011183;28;20508;-77
2022/02/15 01:53:04;;;;;;;1.98;1.70;;;;;;;7.77;70.89;95973.66;5010804;28;20049;-77
2022/02/15 01:55:33;;;;;;;2.58;1.95;;;;;;;7.74;70.64;95971.44;5011185;28;20466;-76
2022/02/15 01:58:00;;;;;;;4.65;2.92;;;;;;;7.68;70.60;95977.34;5010879;28;20052;-77
2022/02/15 02:00:28;;;;;;;3.20;2.53;;;;;;;7.60;70.58;95983.41;5012135;28;20046;-77
2022/02/15 02:02:55;;;;;;;2.53;1.80;;;;;;;7.55;71.20;95974.56;5012763;28;20050;-77
2022/02/15 02:08:08;;;;;;;3.70;2.30;;;;;;;7.56;71.47;95981.34;5011347;28;20053;-77
2022/02/15 02:10:37;;;;;;;3.05;2.30;;;;;;;7.56;71.04;95978.75;5012463;28;20053;-77
2022/02/15 02:13:04;;;;;;;2.00;1.80;;;;;;;7.51;70.72;95981.88;5012667;28;20054;-76
2022/02/15 02:15:32;;;;;;;1.73;1.58;;;;;;;7.46;71.08;95971.25;5012602;28;20054;-77
2022/02/15 02:18:00;;;;;;;1.90;1.67;;;;;;;7.43;71.12;95974.19;5012043;28;20054;-77
2022/02/15 02:20:28;;;;;;;1.98;1.60;;;;;;;7.42;71.32;95981.16;5012183;28;20061;-77
2022/02/15 02:22:57;;;;;;;1.63;1.52;;;;;;;7.40;71.15;95980.53;5012132;28;20069;-77
2022/02/15 02:25:25;;;;;;;1.42;1.27;;;;;;;7.41;71.19;95982.16;5012591;28;20053;-77
2022/02/15 02:27:52;;;;;;;1.60;1.50;;;;;;;7.42;70.75;95990.75;5012136;28;20072;-77
2022/02/15 02:30:20;;;;;;;1.52;1.40;;;;;;;7.38;70.91;95990.28;5012027;28;20569;-77
2022/02/15 02:32:48;;;;;;;1.77;1.52;;;;;;;7.38;71.19;95992.88;5012226;28;20049;-77
2022/02/15 02:35:15;;;;;;;2.42;1.30;;;;;;;7.42;71.16;95988.16;5012095;28;20054;-77
2022/02/15 02:37:43;;;;;;;1.90;1.60;;;;;;;7.48;71.04;95992.63;5012077;28;20054;-77
2022/02/15 02:40:13;;;;;;;2.05;1.95;;;;;;;7.50;70.64;95989.84;5012217;28;20050;-77
2022/02/15 02:42:41;;;;;;;2.67;1.98;;;;;;;7.47;70.89;95996.19;5014260;28;20061;-77
2022/02/15 02:45:12;;;;;;;2.25;1.70;;;;;;;7.48;71.49;96002.19;5018644;28;20069;-77
2022/02/15 02:47:42;;;;;;;2.90;2.08;;;;;;;7.51;71.36;96001.84;5016544;28;20049;-77
2022/02/15 02:50:11;;;;;;;1.88;1.65;;;;;;;7.49;71.26;96001.22;5012542;28;20057;-77
2022/02/15 02:52:39;;;;;;;1.85;1.55;;;;;;;7.48;70.83;96000.41;5012462;28;20458;-76
2022/02/15 02:55:08;;;;;;;1.38;1.27;;;;;;;7.42;70.65;95999.31;5012084;28;20054;-77
2022/02/15 02:57:38;;;;;;;1.48;1.33;;;;;;;7.39;71.29;96002.28;5012170;28;20049;-77
2022/02/15 03:00:08;;;;;;;1.60;1.40;;;;;;;7.38;71.00;96013.63;5012680;28;20050;-77
2022/02/15 03:02:36;;;;;;;2.65;1.73;;;;;;;7.32;71.23;96013.53;5012492;28;20050;-77
2022/02/15 03:05:03;;;;;;;1.95;1.40;;;;;;;7.34;72.05;96011.56;5012465;28;20057;-77
2022/02/15 03:07:31;;;;;;;3.90;1.80;;;;;;;7.35;71.50;96018.38;5012137;28;20053;-77
2022/02/15 03:09:58;;;;;;;2.00;1.80;;;;;;;7.36;71.78;96025.97;5013269;28;20054;-77
2022/02/15 03:12:26;;;;;;;1.40;1.30;;;;;;;7.39;71.38;96020.44;5012832;28;20057;-77
2022/02/15 03:14:55;;;;;;;1.42;1.33;;;;;;;7.34;70.88;96025.34;5012547;28;20412;-77
2022/02/15 03:17:22;;;;;;;1.77;1.40;;;;;;;7.27;71.32;96034.81;5012782;28;20053;-77
2022/02/15 03:19:53;;;;;;;1.20;1.10;;;;;;;7.23;71.30;96028.34;5015138;28;20474;-77
2022/02/15 03:22:22;;;;;;;1.42;1.20;;;;;;;7.24;71.17;96032.56;5016020;28;20050;-76
2022/02/15 03:24:49;;;;;;;1.45;1.35;;;;;;;7.23;71.08;96041.31;5015543;28;20046;-77
2022/02/15 03:27:17;;;;;;;1.40;1.30;;;;;;;7.21;71.45;96032.91;5015091;28;20053;-77
2022/02/15 03:29:44;;;;;;;1.85;1.25;;;;;;;7.18;71.01;96041.06;5015740;28;20060;-77
2022/02/15 03:32:13;;;;;;;2.13;1.48;;;;;;;7.12;71.30;96039.16;5015542;28;20057;-77
2022/02/15 03:34:41;;;;;;;2.05;1.55;;;;;;;7.09;71.38;96040.31;5015369;28;20053;-77
2022/02/15 03:37:08;;;;;;;1.80;1.10;;;;;;;7.04;71.49;96039.19;5015277;28;20500;-77
2022/02/15 03:39:36;;;;;;;1.35;1.23;;;;;;;6.99;70.93;96040.53;5022014;28;20060;-76
2022/02/15 03:44:50;;;;;;;1.40;1.27;;;;;;;7.02;71.25;96044.56;5017458;28;20057;-77
2022/02/15 03:47:19;;;;;;;1.60;1.33;;;;;;;6.98;71.03;96044.09;5016043;28;20049;-78
2022/02/15 03:49:47;;;;;;;1.20;1.10;;;;;;;6.94;71.38;96042.84;5014877;28;20050;-77
2022/02/15 03:52:14;;;;;;;1.92;1.73;;;;;;;6.89;71.20;96049.53;5014803;28;20061;-77
2022/02/15 03:54:42;;;;;;;1.20;1.10;;;;;;;6.83;71.33;96045.03;5014904;28;20058;-77
2022/02/15 03:57:09;;;;;;;3.50;2.08;;;;;;;6.80;71.74;96043.59;5014601;28;20057;-77
2022/02/15 03:59:37;;;;;;;2.15;1.60;;;;;;;6.80;71.66;96046.19;5014579;28;20069;-77
2022/02/15 04:02:05;;;;;;;3.33;1.30;;;;;;;6.80;71.46;96052.16;5014759;28;20578;-77
2022/02/15 04:04:34;;;;;;;2.15;1.20;;;;;;;6.88;72.38;96055.69;5016516;28;20508;-77
2022/02/15 04:07:01;;;;;;;1.95;1.25;;;;;;;6.92;71.36;96054.38;5016885;28;20463;-76
2022/02/15 04:09:29;;;;;;;1.27;1.17;;;;;;;6.89;71.37;96058.09;5016757;28;20062;-77
2022/02/15 04:11:56;;;;;;;1.38;1.25;;;;;;;6.86;71.27;96061.03;5016566;28;20046;-77
2022/02/15 04:14:24;;;;;;;1.95;1.40;;;;;;;6.79;70.83;96065.28;5016573;28;20062;-77
2022/02/15 04:16:51;;;;;;;1.10;1.00;;;;;;;6.72;71.15;96066.97;5015371;28;20504;-76
2022/02/15 04:19:19;;;;;;;1.48;1.35;;;;;;;6.68;71.63;96063.09;5037491;22;20578;-87
2022/02/15 04:21:48;;;;;;;1.58;1.23;;;;;;;6.66;71.47;96070.22;5002578;28;20054;-80
2022/02/15 04:24:15;;;;;;;1.48;1.20;;;;;;;6.62;71.20;96072.34;5004290;28;20050;-81
2022/02/15 04:26:43;;;;;;;1.27;1.17;;;;;;;6.54;71.60;96070.59;5015970;28;20026;-85
2022/02/15 04:29:10;;;;;;;1.40;1.20;;;;;;;6.50;71.56;96071.91;5015837;28;20050;-84
2022/02/15 04:31:38;;;;;;;1.63;1.25;;;;;;;6.46;71.53;96070.63;5009494;28;20062;-83
2022/02/15 04:34:05;;;;;;;2.13;1.35;;;;;;;6.38;72.00;96068.91;5009809;28;20101;-83
2022/02/15 04:36:33;;;;;;;2.08;1.70;;;;;;;6.33;71.76;96070.38;5009885;28;20061;-80
2022/02/15 04:39:02;;;;;;;2.83;1.40;;;;;;;6.28;72.11;96080.44;5009550;28;20048;-82
2022/02/15 04:41:29;;;;;;;2.45;1.60;;;;;;;6.26;72.15;96077.22;5006336;28;20050;-81
2022/02/15 04:43:59;;;;;;;3.40;2.25;;;;;;;6.21;71.91;96082.06;5008463;28;20054;-79
2022/02/15 04:46:27;;;;;;;3.42;2.78;;;;;;;6.13;72.21;96075.94;5008321;28;20481;-79
2022/02/15 04:48:54;;;;;;;4.30;2.83;;;;;;;6.11;72.34;96077.09;5008288;28;20073;-82
2022/02/15 04:51:22;;;;;;;3.70;2.75;;;;;;;6.08;72.89;96075.66;5007812;28;20053;-82
2022/02/15 04:53:49;;;;;;;3.20;2.38;;;;;;;6.03;72.50;96083.09;5008167;28;20054;-81
2022/02/15 04:56:18;;;;;;;3.40;2.80;;;;;;;5.99;72.71;96081.78;5007957;28;20100;-82
2022/02/15 04:58:46;;;;;;;4.72;2.90;;;;;;;5.96;73.09;96079.53;5003330;28;20061;-80
2022/02/15 05:01:14;;;;;;;3.75;3.08;;;;;;;5.96;72.98;96085.53;5002839;28;20042;-83
2022/02/15 05:03:42;;;;;;;4.53;3.08;;;;;;;5.96;73.41;96087.31;5005567;28;20050;-81
2022/02/15 05:06:10;;;;;;;6.15;3.30;;;;;;;5.99;73.23;96097.31;5003630;28;20051;-80
2022/02/15 05:08:38;;;;;;;7.80;4.90;;;;;;;6.04;73.43;96097.66;5004868;28;20065;-81
2022/02/15 05:11:05;;;;;;;11.20;6.22;;;;;;;6.09;73.36;96095.38;5004947;28;20046;-79
2022/02/15 05:13:35;;;;;;;13.18;7.13;;;;;;;6.13;73.42;96096.66;5004133;28;20050;-80
2022/02/15 05:16:03;;;;;;;10.93;5.82;;;;;;;6.12;73.04;96095.06;5005660;28;20199;-79
2022/02/15 05:18:31;;;;;;;6.82;4.65;;;;;;;6.11;73.31;96097.81;5005067;28;20516;-81
2022/02/15 05:21:01;;;;;;;9.32;5.97;;;;;;;6.09;73.06;96097.97;5004397;28;20050;-79
2022/02/15 05:23:30;;;;;;;9.90;6.65;;;;;;;6.08;73.02;96103.28;5001406;28;20058;-81
2022/02/15 05:25:58;;;;;;;11.27;7.57;;;;;;;6.06;73.07;96100.09;5004221;28;20062;-83
2022/02/15 05:28:26;;;;;;;9.23;6.22;;;;;;;5.98;72.92;96108.66;5003885;28;20046;-80
2022/02/15 05:30:56;;;;;;;10.48;6.70;;;;;;;5.98;73.79;96119.81;5004854;28;20046;-79
2022/02/15 05:33:23;;;;;;;9.07;5.63;;;;;;;6.03;73.79;96127.09;5003541;28;20476;-81
2022/02/15 05:35:51;;;;;;;7.80;5.63;;;;;;;6.11;73.60;96144.41;5002132;28;20066;-79
2022/02/15 05:38:18;;;;;;;6.53;5.03;;;;;;;6.18;73.78;96135.81;5003913;28;20516;-79
2022/02/15 05:40:46;;;;;;;5.60;4.32;;;;;;;6.16;73.07;96132.56;5001740;28;20050;-79
2022/02/15 05:43:14;;;;;;;7.60;4.03;;;;;;;6.12;73.33;96128.72;5001109;28;20053;-82
2022/02/15 05:45:47;;;;;;;5.22;4.50;;;;;;;6.10;73.32;96128.06;4994765;28;20070;-84
2022/02/15 05:48:16;;;;;;;5.68;4.25;;;;;;;6.13;73.68;96127.72;5010055;28;20132;-80
2022/02/15 05:50:53;;;;;;;7.28;4.30;;;;;;;6.12;73.78;96131.31;5017031;28;20057;-78
2022/02/15 05:53:22;;;;;;;9.05;4.95;;;;;;;6.13;73.60;96132.13;5015714;28;20058;-79
2022/02/15 05:55:52;;;;;;;19.58;8.75;;;;;;;6.12;73.62;96133.06;5001919;28;20254;-82
2022/02/15 05:58:20;;;;;;;12.82;7.00;;;;;;;6.12;74.08;96136.50;5001391;28;20500;-79
2022/02/15 06:00:48;;;;;;;9.65;5.90;;;;;;;6.12;73.85;96146.84;5001072;28;20054;-79
2022/02/15 06:06:05;;;;;;;9.73;6.18;;;;;;;6.20;73.62;96148.59;5000157;28;20429;-77
2022/02/15 06:08:32;;;;;;;8.43;6.93;;;;;;;6.25;73.69;96146.31;5002066;28;20061;-78
2022/02/15 06:11:00;;;;;;;14.02;8.55;;;;;;;6.30;72.92;96148.44;4999737;28;20087;-78
2022/02/15 06:13:27;;;;;;;10.85;7.28;;;;;;;6.28;72.76;96145.19;5000287;28;20539;-76
2022/02/15 06:15:55;;;;;;;11.52;7.55;;;;;;;6.22;72.58;96141.47;5004886;28;20106;-81
2022/02/15 06:18:24;;;;;;;11.80;7.22;;;;;;;6.18;72.72;96147.94;5017960;28;20061;-84
2022/02/15 06:20:51;;;;;;;10.38;6.78;;;;;;;6.14;73.13;96155.25;5016707;28;20050;-85
2022/02/15 06:23:19;;;;;;;7.47;5.47;;;;;;;6.14;72.79;96167.38;4998666;28;20047;-81
2022/02/15 06:25:46;;;;;;;8.80;5.75;;;;;;;6.12;72.80;96164.97;5001031;28;20055;-85
2022/02/15 06:28:14;;;;;;;8.00;5.88;;;;;;;6.11;72.85;96170.31;4999136;28;20053;-82
2022/02/15 06:30:41;;;;;;;11.98;8.77;;;;;;;6.06;72.75;96167.41;5015042;28;20054;-82
2022/02/15 06:33:09;;;;;;;13.88;8.77;;;;;;;6.01;72.79;96169.66;5003536;28;20047;-81
2022/02/15 06:35:38;;;;;;;8.57;6.55;;;;;;;6.00;73.32;96163.69;5002399;28;20091;-80
2022/02/15 06:38:05;;;;;;;11.63;6.97;;;;;;;6.04;73.11;96162.38;4986051;28;20054;-84
2022/02/15 06:40:38;;;;;;;11.20;7.65;;;;;;;6.08;73.86;96173.22;4983664;28;20050;-82
2022/02/15 06:43:06;;;;;;;10.15;7.55;;;;;;;6.08;72.96;96168.88;4983843;28;20051;-82
2022/02/15 06:45:33;;;;;;;11.65;8.38;;;;;;;6.06;72.64;96173.41;4983328;28;20061;-82
2022/02/15 06:48:01;;;;;;;9.52;7.05;;;;;;;6.00;72.85;96171.44;4982747;28;20507;-81
2022/02/15 06:50:28;;;;;;;11.85;7.95;;;;;;;5.90;72.99;96170.78;4983232;28;20047;-83
2022/02/15 06:53:00;;;;;;;14.02;9.07;;;;;;;5.82;73.74;96175.97;4983574;28;20043;-87
2022/02/15 06:55:48;;;;;;;11.88;8.35;;;;;;;5.80;73.80;96172.75;4986067;28;20393;-87
2022/02/15 06:58:15;;;;;;;10.35;7.80;;;;;;;5.80;73.66;96176.13;5005698;28;20062;-85
2022/02/15 07:00:43;;;;;;;10.73;8.18;;;;;;;5.77;73.72;96176.44;5026389;28;20526;-79
2022/02/15 07:03:11;;;;;;;11.77;8.15;;;;;;;5.77;73.85;96184.19;5027628;28;20053;-84
2022/02/15 07:05:38;;;;;;;11.90;8.65;;;;;;;5.73;73.77;96188.09;5027131;28;20058;-81
2022/02/15 07:08:07;;;;;;;16.02;9.93;;;;;;;5.71;73.84;96198.59;5026646;28;20061;-84
2022/02/15 07:10:36;;;;;;;21.92;13.23;;;;;;;5.72;73.90;96199.41;5017827;28;20054;-84
2022/02/15 07:13:03;;;;;;;17.23;10.75;;;;;;;5.73;73.76;96209.63;5007403;28;20420;-82
2022/02/15 07:15:32;;;;;;;16.17;10.90;;;;;;;5.72;74.37;96213.16;5005026;28;20066;-82
2022/02/15 07:17:59;;;;;;;11.13;8.40;;;;;;;5.80;73.87;96212.38;5004139;28;20435;-83
2022/02/15 07:20:32;;;;;;;13.25;9.20;;;;;;;5.84;73.49;96218.84;5006361;28;20057;-86
2022/02/15 07:23:00;;;;;;;11.40;8.23;;;;;;;5.81;73.52;96221.72;5007075;28;20141;-88
2022/02/15 07:25:29;;;;;;;10.30;7.55;;;;;;;5.81;73.90;96226.09;5004868;28;20061;-88
2022/02/15 07:28:01;;;;;;;9.90;7.88;;;;;;;5.83;73.25;96229.34;5005253;28;20424;-87
2022/02/15 07:30:28;;;;;;;19.83;8.27;;;;;;;5.85;73.58;96235.19;5006557;28;20133;-88
2022/02/15 07:32:56;;;;;;;9.77;7.40;;;;;;;5.87;73.46;96231.44;5005937;28;20046;-85
2022/02/15 07:35:24;;;;;;;11.80;7.80;;;;;;;5.83;73.58;96237.09;5005721;28;20057;-85
2022/02/15 07:37:52;;;;;;;9.13;6.82;;;;;;;5.82;73.85;96249.25;5005007;28;20050;-80
2022/02/15 07:40:23;;;;;;;8.90;6.90;;;;;;;5.83;73.82;96247.47;5006033;28;20046;-81
2022/02/15 07:42:53;;;;;;;11.55;7.18;;;;;;;5.86;73.71;96247.13;5006584;28;20065;-83
2022/02/15 07:45:21;;;;;;;10.10;6.93;;;;;;;5.89;73.92;96252.00;4990740;28;20054;-81
2022/02/15 07:47:50;;;;;;;9.50;6.78;;;;;;;5.91;74.35;96257.84;4982761;28;20058;-81
2022/02/15 07:50:20;;;;;;;11.75;7.13;;;;;;;5.97;74.20;96263.22;4982963;28;20081;-81
2022/02/15 07:52:50;;;;;;;13.63;7.30;;;;;;;6.03;74.02;96266.91;4983227;28;20069;-80
2022/02/15 07:55:19;;;;;;;24.20;12.52;;;;;;;6.09;73.83;96266.28;4985588;28;20115;-80
2022/02/15 07:57:47;;;;;;;15.18;9.10;;;;;;;6.09;73.61;96266.28;4985433;28;20046;-81
2022/02/15 08:00:21;;;;;;;13.02;9.18;;;;;;;6.09;73.62;96265.47;4984960;28;20060;-79
2022/02/15 08:02:51;;;;;;;10.65;7.90;;;;;;;6.12;74.30;96271.16;4984163;28;20055;-83
2022/02/15 08:05:19;;;;;;;13.65;8.30;;;;;;;6.15;73.54;96270.00;4988345;28;20050;-87
2022/02/15 08:07:47;;;;;;;16.35;8.13;;;;;;;6.12;73.60;96271.16;4988371;28;20055;-85
2022/02/15 08:10:18;;;;;;;13.65;8.38;;;;;;;6.12;73.60;96275.50;4987910;28;20055;-82
2022/02/15 08:12:48;;;;;;;13.13;9.15;;;;;;;6.13;73.51;96282.31;4988450;28;20051;-85
2022/02/15 08:15:17;;;;;;;12.15;8.27;;;;;;;6.11;73.49;96285.06;4985880;28;20047;-81
2022/02/15 08:17:45;;;;;;;11.98;7.93;;;;;;;6.16;73.86;96287.97;4983893;28;20061;-81
2022/02/15 08:20:13;;;;;;;13.82;7.55;;;;;;;6.24;74.04;96291.53;4988630;28;20065;-81
2022/02/15 08:22:40;;;;;;;11.98;8.48;;;;;;;6.31;73.64;96287.31;4991298;28;20062;-84
2022/02/15 08:25:09;;;;;;;19.75;7.50;;;;;;;6.35;73.62;96293.81;4985602;28;20058;-82
2022/02/15 08:27:36;;;;;;;31.83;9.70;;;;;;;6.37;73.28;96297.84;4988366;28;20051;-82
2022/02/15 08:30:05;;;;;;;22.33;9.20;;;;;;;6.40;73.27;96305.28;4986728;28;20058;-82
2022/02/15 08:32:35;;;;;;;23.77;8.85;;;;;;;6.46;73.79;96308.22;4985640;28;20054;-79
2022/02/15 08:35:05;;;;;;;11.25;7.72;;;;;;;6.51;73.34;96309.31;4985885;28;20055;-79
2022/02/15 08:37:34;;;;;;;10.40;7.07;;;;;;;6.59;73.45;96309.31;4984086;28;20059;-83
2022/02/15 08:40:04;;;;;;;7.05;6.03;;;;;;;6.68;72.81;96314.50;4983752;28;20505;-82
2022/02/15 08:42:32;;;;;;;8.50;5.20;;;;;;;6.76;72.76;96314.50;4983445;28;20060;-79
2022/02/15 08:44:59;;;;;;;5.75;4.50;;;;;;;6.84;72.96;96318.84;4983637;28;20401;-84
2022/02/15 08:47:27;;;;;;;15.52;9.48;;;;;;;6.91;73.57;96323.22;4984592;28;20047;-82
2022/02/15 08:49:56;;;;;;;51.05;30.58;;;;;;;7.00;73.71;96324.81;4983621;28;20053;-81
2022/02/15 08:52:26;;;;;;;19.92;11.43;;;;;;;7.07;73.08;96322.38;4982356;28;20046;-79
2022/02/15 08:54:55;;;;;;;6.05;4.20;;;;;;;7.13;72.57;96320.91;4982065;28;20057;-79
2022/02/15 08:57:24;;;;;;;6.30;3.88;;;;;;;7.17;72.70;96324.75;4988766;28;20063;-81
2022/02/15 08:59:53;;;;;;;3.28;2.97;;;;;;;7.22;72.24;96325.09;5025370;28;20049;-82
2022/02/15 09:02:22;;;;;;;3.83;2.72;;;;;;;7.27;72.21;96330.56;5024697;28;20054;-80
2022/02/15 09:04:50;;;;;;;7.03;3.05;;;;;;;7.29;71.71;96336.41;5022484;28;20052;-79
2022/02/15 09:07:20;;;;;;;4.00;3.38;;;;;;;7.31;72.01;96334.44;5023883;28;20056;-83
2022/02/15 09:09:49;;;;;;;4.45;3.22;;;;;;;7.34;72.42;96334.09;5024935;28;20052;-84
2022/02/15 09:12:17;;;;;;;3.13;2.83;;;;;;;7.35;72.28;96335.72;5024527;28;20057;-80
2022/02/15 09:14:46;;;;;;;3.63;3.13;;;;;;;7.36;72.24;96342.53;5023803;28;20084;-81
2022/02/15 09:17:14;;;;;;;3.22;2.33;;;;;;;7.37;72.05;96338.97;5023103;28;20053;-82
2022/02/15 09:19:42;;;;;;;2.40;2.10;;;;;;;7.38;72.09;96344.97;5020114;28;20054;-78
2022/02/15 09:22:09;;;;;;;2.17;1.98;;;;;;;7.36;71.68;96345.13;5020524;28;20116;-78
2022/02/15 09:24:38;;;;;;;3.40;2.05;;;;;;;7.35;71.44;96346.13;5020292;28;20069;-80
2022/02/15 09:27:06;;;;;;;2.42;2.20;;;;;;;7.37;71.78;96346.75;5021095;28;20042;-85
2022/02/15 09:29:34;;;;;;;4.28;2.20;;;;;;;7.40;71.59;96349.00;5020262;28;20496;-78
2022/02/15 09:32:01;;;;;;;2.17;1.98;;;;;;;7.47;72.00;96348.34;5020104;28;20049;-79
2022/02/15 09:34:29;;;;;;;3.13;2.20;;;;;;;7.52;72.03;96349.47;5021713;28;20483;-81
2022/02/15 09:36:57;;;;;;;2.97;2.17;;;;;;;7.54;71.80;96355.28;5020531;28;20082;-83
2022/02/15 09:39:24;;;;;;;3.17;1.88;;;;;;;7.56;71.46;96352.50;5020328;28;20046;-83
2022/02/15 09:41:54;;;;;;;3.20;1.73;;;;;;;7.56;71.65;96352.50;5022238;28;20058;-82
2022/02/15 09:44:22;;;;;;;3.05;1.80;;;;;;;7.57;71.30;96359.34;5025495;28;20064;-86
2022/02/15 09:46:50;;;;;;;3.88;2.72;;;;;;;7.59;71.76;96352.19;5024298;28;20489;-80
2022/02/15 09:52:05;;;;;;;2.35;1.50;;;;;;;7.61;71.02;96360.63;5023214;28;20041;-84
2022/02/15 09:54:34;;;;;;;1.85;1.20;;;;;;;7.62;71.35;96349.25;4993325;28;20043;-89
2022/02/15 09:57:03;;;;;;;2.45;1.35;;;;;;;7.66;71.37;96347.13;5000848;28;20047;-86
2022/02/15 09:59:31;;;;;;;1.88;1.27;;;;;;;7.69;70.41;96352.78;5024247;28;20054;-83
2022/02/15 10:02:05;;;;;;;2.47;1.10;;;;;;;7.70;69.97;96364.78;5013987;28;20050;-78
2022/02/15 10:04:34;;;;;;;1.63;1.50;;;;;;;7.70;70.56;96370.00;5002674;28;20528;-86
2022/02/15 10:07:06;;;;;;;2.33;1.55;;;;;;;7.73;70.78;96372.22;5004132;28;20054;-82
2022/02/15 10:09:35;;;;;;;2.45;2.08;;;;;;;7.74;70.83;96371.28;5003232;28;20046;-87
2022/02/15 10:12:06;;;;;;;25.60;15.65;;;;;;;7.75;71.12;96372.88;5005181;28;20050;-84
2022/02/15 10:14:37;;;;;;;8.43;5.32;;;;;;;7.72;70.37;96373.22;5004139;28;20060;-83
2022/02/15 10:17:09;;;;;;;3.35;2.38;;;;;;;7.74;70.81;96378.22;5002553;28;20050;-80
2022/02/15 10:19:37;;;;;;;2.80;1.88;;;;;;;7.74;71.11;96380.81;5004088;28;20053;-80
2022/02/15 10:22:06;;;;;;;2.42;2.17;;;;;;;7.75;70.87;96380.66;5003562;28;20046;-82
2022/02/15 10:24:36;;;;;;;2.25;2.03;;;;;;;7.76;70.34;96373.69;5002826;28;20527;-84
2022/02/15 10:27:08;;;;;;;2.88;1.85;;;;;;;7.75;70.14;96378.06;4996927;28;20050;-87
2022/02/15 10:29:38;;;;;;;2.00;1.80;;;;;;;7.76;70.01;96382.28;4986125;28;20421;-81
2022/02/15 10:32:07;;;;;;;2.70;2.05;;;;;;;7.78;69.83;96390.72;4984213;28;20807;-78
2022/02/15 10:34:46;;;;;;;3.25;2.10;;;;;;;7.79;70.28;96394.13;4981776;28;20051;-79
2022/02/15 10:37:35;;;;;;;2.45;1.98;;;;;;;7.80;69.82;96400.94;4985406;28;20066;-84
2022/02/15 10:40:05;;;;;;;2.33;1.73;;;;;;;7.78;69.51;96392.50;4986037;28;20460;-82
2022/02/15 10:42:36;;;;;;;3.25;2.33;;;;;;;7.77;69.96;96389.09;4987100;28;20047;-85
2022/02/15 10:45:06;;;;;;;4.13;2.05;;;;;;;7.76;69.95;96397.88;4986814;28;20073;-82
2022/02/15 10:47:36;;;;;;;2.50;2.10;;;;;;;7.75;69.52;96398.84;4985948;28;20069;-84
2022/02/15 10:50:06;;;;;;;2.25;1.85;;;;;;;7.74;69.98;96394.63;4985480;28;20046;-81
2022/02/15 10:52:34;;;;;;;2.63;1.90;;;;;;;7.74;69.91;96404.19;4986544;28;20517;-82
2022/02/15 10:55:02;;;;;;;3.40;1.90;;;;;;;7.74;70.12;96402.44;4983638;28;20050;-80
2022/02/15 10:57:30;;;;;;;2.92;1.92;;;;;;;7.71;69.38;96407.94;4989531;28;20053;-83
2022/02/15 11:00:04;;;;;;;1.90;1.67;;;;;;;7.71;69.28;96418.31;5028385;28;20060;-83
2022/02/15 11:02:39;;;;;;;2.47;1.83;;;;;;;7.71;70.05;96415.72;5009167;28;20054;-86
2022/02/15 11:05:10;;;;;;;2.60;2.13;;;;;;;7.72;69.45;96413.94;5005836;28;20098;-84
2022/02/15 11:07:39;;;;;;;2.10;1.75;;;;;;;7.73;69.60;96410.38;5004533;28;20051;-85
2022/02/15 11:10:18;;;;;;;3.03;2.30;;;;;;;7.73;69.24;96416.38;5004979;28;20069;-82
2022/02/15 11:12:49;;;;;;;2.78;2.47;;;;;;;7.73;69.10;96415.56;5004245;28;20148;-79
2022/02/15 11:15:23;;;;;;;87.88;49.80;;;;;;;7.73;69.53;96421.56;5005060;28;20074;-84
2022/02/15 11:17:52;;;;;;;39.28;20.90;;;;;;;7.73;69.22;96420.75;5002664;28;20057;-80
2022/02/15 11:20:22;;;;;;;7.63;4.13;;;;;;;7.73;69.25;96421.56;5002464;28;20050;-81
2022/02/15 11:22:53;;;;;;;3.00;2.35;;;;;;;7.73;68.74;96420.75;5003689;28;20511;-80
2022/02/15 11:25:32;;;;;;;3.65;2.45;;;;;;;7.72;68.91;96427.75;5001982;28;20058;-79
2022/02/15 11:28:06;;;;;;;5.63;2.80;;;;;;;7.73;69.50;96423.34;5003234;28;20505;-79
2022/02/15 11:30:46;;;;;;;2.58;2.38;;;;;;;7.77;69.09;96425.44;5003156;28;20054;-79
2022/02/15 11:33:20;;;;;;;3.78;3.17;;;;;;;7.78;68.68;96424.50;5001242;28;20054;-81
2022/02/15 11:35:52;;;;;;;4.70;2.80;;;;;;;7.80;68.54;96429.50;5000945;28;20050;-78
2022/02/15 11:38:20;;;;;;;3.35;2.55;;;;;;;7.81;68.75;96429.34;5001223;28;20046;-81
2022/02/15 11:41:02;;;;;;;3.67;2.30;;;;;;;7.83;68.14;96423.97;5000345;28;20050;-82
2022/02/15 11:43:33;;;;;;;3.42;2.72;;;;;;;7.82;68.44;96424.94;5000485;28;20058;-79
2022/02/15 11:46:04;;;;;;;3.10;2.63;;;;;;;7.82;68.84;96425.75;5000570;28;20050;-81
2022/02/15 11:48:37;;;;;;;6.10;2.50;;;;;;;7.84;68.91;96410.00;5000444;28;20070;-80
2022/02/15 11:51:16;;;;;;;2.95;2.17;;;;;;;7.85;68.62;96414.22;4999688;28;20042;-77
2022/02/15 11:53:45;;;;;;;3.05;2.50;;;;;;;7.83;68.53;96422.19;5000916;28;20716;-79
2022/02/15 11:56:14;;;;;;;3.63;2.60;;;;;;;7.84;68.61;96417.78;5000096;28;20050;-78
2022/02/15 11:58:45;;;;;;;3.80;2.78;;;;;;;7.83;68.99;96422.19;5015462;28;20046;-87